createdAt,value
2023-05-21T00:00:32.092Z,5.60
2023-05-21T00:01:32.091Z,5.40
2023-05-21T00:02:32.107Z,5.30
2023-05-21T00:03:32.162Z,5.60
2023-05-21T00:04:32.057Z,5.60
2023-05-21T00:05:32.129Z,5.40
2023-05-21T00:06:32.077Z,5.20
2023-05-21T00:07:32.047Z,6.00
2023-05-21T00:08:32.010Z,5.60
2023-05-21T00:09:32.009Z,5.40
2023-05-21T00:10:32.138Z,5.90
2023-05-21T00:11:32.051Z,5.70
2023-05-21T00:12:31.979Z,5.40
2023-05-21T00:13:31.974Z,5.40
2023-05-21T00:14:31.974Z,5.80
2023-05-21T00:15:31.937Z,5.60
2023-05-21T00:16:31.967Z,5.40
2023-05-21T00:17:31.956Z,5.40
2023-05-21T00:18:31.920Z,6.00
2023-05-21T00:19:31.970Z,5.50
2023-05-21T00:20:31.904Z,5.40
2023-05-21T00:21:31.888Z,5.50
2023-05-21T00:22:31.876Z,5.60
2023-05-21T00:23:31.892Z,5.80
2023-05-21T00:24:31.825Z,5.20
2023-05-21T00:25:31.862Z,5.40
2023-05-21T00:26:31.823Z,5.60
2023-05-21T00:27:31.843Z,5.50
2023-05-21T00:28:31.829Z,5.50
2023-05-21T00:29:31.786Z,5.50
2023-05-21T00:30:31.818Z,5.80
2023-05-21T00:31:31.834Z,5.30
2023-05-21T00:32:31.786Z,5.10
2023-05-21T00:33:31.765Z,5.20
2023-05-21T00:34:31.729Z,5.30
2023-05-21T00:35:31.761Z,5.20
2023-05-21T00:36:31.773Z,5.00
2023-05-21T00:37:31.702Z,5.60
2023-05-21T00:38:31.704Z,5.30
2023-05-21T00:39:31.722Z,5.40
2023-05-21T00:40:31.682Z,5.40
2023-05-21T00:41:31.683Z,5.40
2023-05-21T00:42:31.667Z,5.50
2023-05-21T00:43:31.674Z,5.30
2023-05-21T00:44:31.641Z,5.60
2023-05-21T00:45:31.751Z,5.20
2023-05-21T00:46:31.657Z,5.30
2023-05-21T00:47:31.680Z,4.90
2023-05-21T00:48:31.643Z,5.30
2023-05-21T00:49:31.594Z,5.50
2023-05-21T00:50:31.576Z,5.20
2023-05-21T00:51:31.640Z,5.30
2023-05-21T00:52:31.564Z,5.30
2023-05-21T00:53:31.560Z,5.20
2023-05-21T00:54:31.549Z,5.70
2023-05-21T00:55:31.550Z,5.60
2023-05-21T00:56:31.522Z,5.30
2023-05-21T00:57:31.536Z,5.20
2023-05-21T00:58:31.551Z,5.50
2023-05-21T00:59:31.505Z,5.20
2023-05-21T01:00:32.354Z,5.40
2023-05-21T01:01:31.468Z,5.20
2023-05-21T01:02:31.543Z,5.00
2023-05-21T01:03:31.505Z,5.20
2023-05-21T01:04:31.425Z,5.10
2023-05-21T01:05:31.434Z,5.00
2023-05-21T01:06:31.402Z,5.00
2023-05-21T01:07:31.417Z,4.90
2023-05-21T01:08:31.435Z,5.00
2023-05-21T01:09:31.395Z,5.00
2023-05-21T01:10:31.371Z,5.20
2023-05-21T01:11:31.388Z,5.50
2023-05-21T01:12:31.349Z,5.10
2023-05-21T01:13:31.365Z,5.00
2023-05-21T01:14:31.357Z,5.50
2023-05-21T01:15:31.322Z,5.00
2023-05-21T01:16:31.349Z,5.30
2023-05-21T01:17:31.319Z,5.00
2023-05-21T01:18:31.406Z,5.10
2023-05-21T01:19:31.376Z,5.30
2023-05-21T01:20:31.249Z,5.10
2023-05-21T01:21:31.308Z,5.30
2023-05-21T01:22:31.267Z,5.80
2023-05-21T01:23:31.241Z,5.20
2023-05-21T01:24:31.226Z,5.40
2023-05-21T01:25:31.262Z,5.60
2023-05-21T01:26:31.213Z,5.50
2023-05-21T01:27:31.218Z,5.10
2023-05-21T01:28:31.186Z,5.40
2023-05-21T01:29:31.253Z,5.00
2023-05-21T01:30:31.190Z,5.40
2023-05-21T01:31:31.245Z,5.10
2023-05-21T01:32:31.175Z,5.30
2023-05-21T01:33:31.201Z,5.20
2023-05-21T01:34:31.139Z,5.20
2023-05-21T01:35:31.184Z,5.40
2023-05-21T01:36:31.138Z,5.10
2023-05-21T01:37:31.097Z,5.60
2023-05-21T01:38:31.114Z,5.30
2023-05-21T01:39:31.100Z,5.50
2023-05-21T01:40:31.070Z,5.30
2023-05-21T01:41:31.948Z,5.30
2023-05-21T01:42:31.065Z,5.20
2023-05-21T01:43:31.080Z,5.50
2023-05-21T01:44:31.047Z,5.50
2023-05-21T01:45:31.809Z,5.80
2023-05-21T01:46:31.058Z,5.30
2023-05-21T01:47:31.012Z,5.30
2023-05-21T01:48:31.008Z,4.90
2023-05-21T01:49:30.990Z,5.40
2023-05-21T01:50:30.964Z,5.30
2023-05-21T01:51:31.131Z,5.30
2023-05-21T01:52:30.915Z,5.50
2023-05-21T01:53:30.941Z,5.30
2023-05-21T01:54:30.921Z,5.60
2023-05-21T01:55:30.921Z,5.40
2023-05-21T01:56:30.892Z,5.80
2023-05-21T01:57:30.916Z,5.50
2023-05-21T01:58:30.874Z,5.60
2023-05-21T01:59:30.889Z,5.40
2023-05-21T02:00:30.870Z,5.50
2023-05-21T02:01:30.890Z,5.40
2023-05-21T02:02:30.883Z,5.70
2023-05-21T02:03:30.886Z,5.80
2023-05-21T02:04:30.809Z,5.30
2023-05-21T02:05:30.828Z,5.40
2023-05-21T02:06:30.777Z,5.60
2023-05-21T02:07:30.794Z,5.90
2023-05-21T02:08:30.777Z,5.20
2023-05-21T02:09:30.744Z,5.50
2023-05-21T02:10:30.767Z,5.70
2023-05-21T02:11:30.753Z,5.80
2023-05-21T02:12:30.728Z,5.90
2023-05-21T02:13:30.729Z,5.80
2023-05-21T02:14:30.716Z,5.70
2023-05-21T02:15:30.673Z,5.80
2023-05-21T02:16:30.797Z,5.70
2023-05-21T02:17:30.887Z,5.40
2023-05-21T02:18:30.684Z,5.80
2023-05-21T02:19:30.739Z,5.70
2023-05-21T02:20:30.712Z,6.00
2023-05-21T02:21:30.642Z,5.70
2023-05-21T02:22:30.660Z,5.70
2023-05-21T02:23:30.619Z,6.10
2023-05-21T02:24:30.619Z,5.40
2023-05-21T02:25:30.609Z,6.30
2023-05-21T02:26:30.604Z,5.40
2023-05-21T02:27:30.588Z,6.20
2023-05-21T02:28:30.595Z,5.90
2023-05-21T02:29:30.532Z,5.60
2023-05-21T02:30:30.556Z,5.80
2023-05-21T02:31:30.518Z,5.80
2023-05-21T02:32:30.637Z,5.60
2023-05-21T02:33:30.508Z,5.80
2023-05-21T02:34:30.605Z,6.20
2023-05-21T02:35:30.982Z,5.90
2023-05-21T02:36:30.501Z,5.90
2023-05-21T02:37:30.465Z,6.10
2023-05-21T02:38:30.500Z,6.10
2023-05-21T02:39:30.462Z,6.30
2023-05-21T02:40:30.474Z,6.20
2023-05-21T02:41:30.432Z,6.00
2023-05-21T02:42:30.448Z,5.70
2023-05-21T02:43:30.458Z,6.50
2023-05-21T02:44:30.425Z,6.40
2023-05-21T02:45:30.438Z,6.00
2023-05-21T02:46:30.504Z,6.40
2023-05-21T02:47:30.471Z,6.80
2023-05-21T02:48:30.371Z,5.90
2023-05-21T02:49:30.434Z,6.20
2023-05-21T02:50:30.358Z,6.20
2023-05-21T02:51:30.272Z,6.20
2023-05-21T02:52:30.339Z,6.30
2023-05-21T02:53:30.256Z,6.30
2023-05-21T02:54:30.282Z,5.80
2023-05-21T02:55:30.285Z,6.20
2023-05-21T02:56:30.257Z,6.20
2023-05-21T02:57:30.220Z,6.40
2023-05-21T02:58:30.208Z,6.20
2023-05-21T02:59:30.316Z,6.50
2023-05-21T03:00:30.205Z,6.60
2023-05-21T03:01:30.215Z,6.20
2023-05-21T03:02:30.334Z,6.60
2023-05-21T03:03:30.349Z,6.50
2023-05-21T03:04:30.177Z,6.70
2023-05-21T03:05:30.145Z,6.40
2023-05-21T03:06:30.127Z,6.40
2023-05-21T03:07:30.156Z,6.20
2023-05-21T03:08:30.125Z,6.60
2023-05-21T03:09:30.111Z,6.10
2023-05-21T03:10:30.084Z,7.10
2023-05-21T03:11:30.080Z,6.50
2023-05-21T03:12:30.102Z,6.30
2023-05-21T03:13:30.122Z,6.90
2023-05-21T03:14:30.046Z,6.80
2023-05-21T03:15:30.080Z,6.30
2023-05-21T03:16:30.031Z,6.90
2023-05-21T03:17:30.095Z,6.60
2023-05-21T03:18:30.045Z,6.70
2023-05-21T03:19:30.027Z,6.80
2023-05-21T03:20:29.985Z,6.70
2023-05-21T03:21:30.012Z,7.00
2023-05-21T03:22:29.966Z,6.60
2023-05-21T03:23:29.953Z,6.80
2023-05-21T03:24:29.938Z,7.00
2023-05-21T03:25:29.930Z,6.90
2023-05-21T03:26:29.893Z,7.00
2023-05-21T03:27:29.919Z,7.10
2023-05-21T03:28:29.928Z,6.60
2023-05-21T03:29:29.862Z,6.80
2023-05-21T03:30:29.868Z,7.20
2023-05-21T03:31:29.856Z,6.90
2023-05-21T03:32:29.883Z,7.90
2023-05-21T03:33:29.823Z,7.30
2023-05-21T03:34:29.823Z,7.10
2023-05-21T03:35:29.810Z,7.10
2023-05-21T03:36:29.813Z,6.90
2023-05-21T03:37:29.781Z,7.20
2023-05-21T03:38:29.783Z,7.00
2023-05-21T03:39:29.757Z,6.80
2023-05-21T03:40:29.767Z,6.90
2023-05-21T03:41:29.770Z,7.10
2023-05-21T03:42:29.751Z,7.00
2023-05-21T03:43:29.744Z,7.30
2023-05-21T03:44:29.700Z,7.30
2023-05-21T03:45:29.757Z,7.40
2023-05-21T03:46:29.752Z,7.10
2023-05-21T03:47:29.706Z,7.10
2023-05-21T03:48:29.753Z,7.60
2023-05-21T03:49:29.712Z,7.70
2023-05-21T03:50:29.670Z,7.20
2023-05-21T03:51:29.658Z,7.70
2023-05-21T03:52:29.653Z,8.00
2023-05-21T03:53:29.634Z,7.30
2023-05-21T03:54:29.599Z,7.60
2023-05-21T03:55:29.602Z,7.00
2023-05-21T03:56:29.621Z,7.20
2023-05-21T03:57:29.562Z,7.40
2023-05-21T03:58:29.579Z,7.40
2023-05-21T03:59:29.572Z,7.10
2023-05-21T04:00:29.549Z,7.60
2023-05-21T04:01:29.562Z,7.50
2023-05-21T04:02:29.600Z,7.50
2023-05-21T04:03:29.789Z,7.40
2023-05-21T04:04:29.620Z,7.50
2023-05-21T04:05:29.535Z,7.20
2023-05-21T04:06:29.555Z,7.50
2023-05-21T04:07:29.477Z,6.90
2023-05-21T04:08:29.519Z,7.70
2023-05-21T04:09:29.443Z,7.20
2023-05-21T04:10:29.448Z,7.50
2023-05-21T04:11:29.463Z,7.10
2023-05-21T04:12:29.509Z,7.50
2023-05-21T04:13:29.437Z,7.50
2023-05-21T04:14:29.426Z,7.00
2023-05-21T04:15:29.390Z,7.00
2023-05-21T04:16:29.451Z,7.10
2023-05-21T04:17:29.381Z,7.60
2023-05-21T04:18:29.396Z,7.40
2023-05-21T04:19:29.397Z,7.50
2023-05-21T04:20:29.326Z,7.20
2023-05-21T04:21:29.318Z,7.00
2023-05-21T04:22:29.349Z,7.40
2023-05-21T04:23:29.324Z,7.40
2023-05-21T04:24:29.302Z,7.20
2023-05-21T04:25:29.288Z,7.00
2023-05-21T04:26:29.262Z,7.30
2023-05-21T04:27:29.306Z,7.20
2023-05-21T04:28:29.251Z,7.10
2023-05-21T04:29:29.240Z,7.20
2023-05-21T04:30:29.230Z,7.40
2023-05-21T04:31:29.318Z,7.20
2023-05-21T04:32:29.273Z,7.60
2023-05-21T04:33:29.220Z,7.10
2023-05-21T04:34:29.204Z,7.40
2023-05-21T04:35:29.170Z,7.40
2023-05-21T04:36:29.172Z,7.40
2023-05-21T04:37:29.316Z,7.50
2023-05-21T04:38:29.212Z,7.40
2023-05-21T04:39:29.163Z,7.20
2023-05-21T04:40:29.131Z,7.20
2023-05-21T04:41:29.118Z,7.10
2023-05-21T04:42:29.132Z,7.50
2023-05-21T04:43:29.111Z,7.30
2023-05-21T04:44:29.099Z,7.60
2023-05-21T04:45:29.105Z,7.00
2023-05-21T04:46:29.125Z,7.70
2023-05-21T04:47:29.092Z,7.40
2023-05-21T04:48:29.078Z,7.70
2023-05-21T04:49:29.065Z,7.40
2023-05-21T04:50:29.054Z,7.30
2023-05-21T04:51:28.990Z,7.40
2023-05-21T04:52:29.064Z,7.50
2023-05-21T04:53:28.990Z,7.10
2023-05-21T04:54:28.994Z,7.80
2023-05-21T04:55:28.974Z,7.40
2023-05-21T04:56:28.979Z,7.40
2023-05-21T04:57:28.942Z,7.90
2023-05-21T04:58:29.018Z,7.80
2023-05-21T04:59:28.909Z,8.00
2023-05-21T05:00:28.972Z,7.30
2023-05-21T05:01:28.932Z,7.40
2023-05-21T05:02:29.068Z,7.60
2023-05-21T05:03:28.965Z,7.80
2023-05-21T05:04:28.894Z,7.50
2023-05-21T05:05:28.915Z,7.00
2023-05-21T05:06:28.856Z,7.30
2023-05-21T05:07:28.947Z,7.70
2023-05-21T05:08:28.888Z,7.20
2023-05-21T05:09:28.812Z,7.30
2023-05-21T05:10:28.867Z,7.40
2023-05-21T05:11:28.791Z,7.70
2023-05-21T05:12:28.787Z,7.60
2023-05-21T05:13:28.776Z,7.50
2023-05-21T05:14:28.778Z,7.40
2023-05-21T05:15:28.973Z,7.50
2023-05-21T05:16:28.771Z,7.20
2023-05-21T05:17:28.769Z,7.70
2023-05-21T05:18:28.770Z,7.60
2023-05-21T05:19:28.797Z,7.50
2023-05-21T05:20:28.716Z,7.50
2023-05-21T05:21:28.688Z,8.00
2023-05-21T05:22:28.687Z,7.70
2023-05-21T05:23:28.663Z,7.60
2023-05-21T05:24:28.683Z,7.30
2023-05-21T05:25:28.660Z,7.90
2023-05-21T05:26:28.665Z,7.50
2023-05-21T05:27:28.662Z,7.60
2023-05-21T05:28:29.270Z,7.80
2023-05-21T05:29:28.590Z,8.20
2023-05-21T05:30:28.632Z,7.90
2023-05-21T05:31:28.643Z,7.80
2023-05-21T05:32:28.591Z,8.10
2023-05-21T05:33:28.586Z,7.80
2023-05-21T05:34:28.565Z,8.10
2023-05-21T05:35:28.534Z,7.90
2023-05-21T05:36:28.527Z,8.40
2023-05-21T05:37:28.522Z,8.50
2023-05-21T05:38:28.540Z,8.00
2023-05-21T05:39:28.507Z,7.80
2023-05-21T05:40:28.511Z,7.90
2023-05-21T05:41:28.477Z,7.70
2023-05-21T05:42:28.489Z,8.50
2023-05-21T05:43:28.461Z,7.60
2023-05-21T05:44:28.443Z,7.70
2023-05-21T05:45:28.441Z,7.60
2023-05-21T05:46:28.442Z,7.90
2023-05-21T05:47:28.478Z,7.70
2023-05-21T05:48:28.407Z,7.90
2023-05-21T05:49:28.404Z,7.60
2023-05-21T05:50:28.397Z,7.80
2023-05-21T05:51:28.388Z,7.40
2023-05-21T05:52:28.373Z,7.60
2023-05-21T05:53:28.342Z,7.70
2023-05-21T05:54:28.343Z,7.70
2023-05-21T05:55:28.333Z,7.60
2023-05-21T05:56:28.319Z,7.80
2023-05-21T05:57:28.304Z,7.30
2023-05-21T05:58:28.304Z,7.60
2023-05-21T05:59:28.297Z,7.70
2023-05-21T06:00:28.297Z,7.90
2023-05-21T06:01:28.330Z,7.60
2023-05-21T06:02:28.341Z,8.10
2023-05-21T06:03:28.509Z,7.80
2023-05-21T06:04:28.238Z,8.00
2023-05-21T06:05:28.270Z,7.50
2023-05-21T06:06:28.259Z,7.80
2023-05-21T06:07:28.208Z,8.30
2023-05-21T06:08:28.234Z,8.20
2023-05-21T06:09:28.213Z,8.60
2023-05-21T06:10:28.211Z,8.10
2023-05-21T06:11:28.167Z,7.80
2023-05-21T06:12:28.154Z,8.00
2023-05-21T06:13:28.180Z,8.20
2023-05-21T06:14:28.196Z,8.00
2023-05-21T06:15:28.109Z,7.60
2023-05-21T06:16:28.149Z,7.60
2023-05-21T06:17:28.136Z,7.90
2023-05-21T06:18:28.127Z,8.20
2023-05-21T06:19:29.045Z,8.30
2023-05-21T06:20:28.111Z,8.20
2023-05-21T06:21:28.094Z,8.40
2023-05-21T06:22:28.145Z,7.80
2023-05-21T06:23:28.047Z,7.90
2023-05-21T06:24:28.087Z,8.10
2023-05-21T06:25:28.038Z,7.70
2023-05-21T06:26:28.035Z,7.90
2023-05-21T06:27:28.057Z,8.30
2023-05-21T06:28:27.999Z,8.60
2023-05-21T06:29:28.031Z,8.20
2023-05-21T06:30:27.982Z,8.20
2023-05-21T06:31:28.018Z,8.40
2023-05-21T06:32:28.110Z,8.00
2023-05-21T06:33:28.063Z,7.90
2023-05-21T06:34:27.932Z,8.10
2023-05-21T06:35:27.947Z,7.60
2023-05-21T06:36:28.005Z,8.30
2023-05-21T06:37:27.919Z,8.20
2023-05-21T06:38:27.900Z,8.70
2023-05-21T06:39:27.898Z,8.20
2023-05-21T06:40:27.910Z,7.70
2023-05-21T06:41:27.905Z,8.10
2023-05-21T06:42:27.853Z,7.90
2023-05-21T06:43:27.870Z,7.60
2023-05-21T06:44:27.834Z,8.40
2023-05-21T06:45:27.843Z,7.70
2023-05-21T06:46:27.933Z,8.10
2023-05-21T06:47:27.859Z,8.30
2023-05-21T06:48:27.813Z,8.10
2023-05-21T06:49:27.833Z,8.00
2023-05-21T06:50:27.824Z,8.40
2023-05-21T06:51:27.794Z,8.50
2023-05-21T06:52:27.762Z,8.30
2023-05-21T06:53:27.750Z,8.30
2023-05-21T06:54:27.721Z,8.40
2023-05-21T06:55:27.756Z,8.10
2023-05-21T06:56:27.701Z,8.20
2023-05-21T06:57:27.724Z,8.60
2023-05-21T06:58:27.739Z,8.60
2023-05-21T06:59:27.690Z,8.60
2023-05-21T07:00:27.721Z,8.40
2023-05-21T07:01:27.695Z,8.60
2023-05-21T07:02:27.765Z,8.30
2023-05-21T07:03:27.729Z,8.90
2023-05-21T07:04:27.648Z,8.30
2023-05-21T07:05:27.649Z,8.60
2023-05-21T07:06:27.603Z,8.50
2023-05-21T07:07:27.607Z,8.30
2023-05-21T07:08:27.566Z,8.20
2023-05-21T07:09:27.581Z,8.60
2023-05-21T07:10:27.580Z,8.50
2023-05-21T07:11:27.576Z,8.70
2023-05-21T07:12:27.540Z,8.80
2023-05-21T07:13:27.516Z,8.50
2023-05-21T07:14:27.501Z,8.70
2023-05-21T07:15:27.518Z,8.30
2023-05-21T07:16:27.533Z,8.00
2023-05-21T07:17:27.529Z,8.20
2023-05-21T07:18:27.535Z,8.70
2023-05-21T07:19:27.576Z,8.60
2023-05-21T07:20:27.467Z,8.60
2023-05-21T07:21:27.456Z,8.60
2023-05-21T07:22:28.504Z,8.60
2023-05-21T07:23:27.473Z,8.60
2023-05-21T07:24:27.547Z,9.00
2023-05-21T07:25:27.433Z,8.80
2023-05-21T07:26:27.390Z,8.40
2023-05-21T07:27:27.391Z,8.50
2023-05-21T07:28:27.367Z,8.60
2023-05-21T07:29:27.386Z,8.30
2023-05-21T07:30:27.377Z,9.00
2023-05-21T07:31:27.452Z,8.60
2023-05-21T07:32:27.366Z,8.60
2023-05-21T07:33:27.315Z,8.80
2023-05-21T07:34:27.368Z,8.30
2023-05-21T07:35:27.289Z,8.40
2023-05-21T07:36:27.302Z,8.30
2023-05-21T07:37:27.372Z,9.20
2023-05-21T07:38:27.273Z,8.90
2023-05-21T07:39:27.267Z,8.20
2023-05-21T07:40:27.250Z,8.50
2023-05-21T07:41:27.251Z,8.30
2023-05-21T07:42:27.230Z,8.40
2023-05-21T07:43:27.245Z,8.00
2023-05-21T07:44:27.312Z,8.30
2023-05-21T07:45:27.299Z,8.10
2023-05-21T07:46:27.231Z,8.10
2023-05-21T07:47:27.183Z,8.60
2023-05-21T07:48:27.183Z,8.60
2023-05-21T07:49:27.192Z,8.50
2023-05-21T07:50:27.146Z,8.60
2023-05-21T07:51:27.122Z,9.10
2023-05-21T07:52:27.120Z,9.00
2023-05-21T07:53:27.116Z,8.60
2023-05-21T07:54:27.114Z,8.30
2023-05-21T07:55:27.121Z,8.90
2023-05-21T07:56:27.066Z,8.50
2023-05-21T07:57:27.080Z,8.10
2023-05-21T07:58:27.073Z,8.70
2023-05-21T07:59:27.066Z,8.70
2023-05-21T08:00:27.028Z,8.80
2023-05-21T08:01:27.082Z,8.50
2023-05-21T08:02:27.087Z,9.30
2023-05-21T08:03:27.200Z,8.40
2023-05-21T08:04:27.052Z,8.50
2023-05-21T08:05:26.979Z,8.20
2023-05-21T08:06:26.945Z,8.60
2023-05-21T08:07:26.976Z,8.90
2023-05-21T08:08:26.968Z,8.30
2023-05-21T08:09:26.934Z,8.40
2023-05-21T08:10:26.910Z,9.50
2023-05-21T08:11:26.954Z,8.30
2023-05-21T08:12:26.915Z,8.80
2023-05-21T08:13:26.879Z,8.60
2023-05-21T08:14:26.861Z,9.10
2023-05-21T08:15:26.864Z,8.90
2023-05-21T08:16:26.994Z,8.60
2023-05-21T08:17:26.860Z,8.80
2023-05-21T08:18:26.896Z,8.90
2023-05-21T08:19:26.860Z,8.70
2023-05-21T08:20:26.843Z,9.10
2023-05-21T08:21:26.837Z,9.00
2023-05-21T08:22:26.803Z,8.70
2023-05-21T08:23:26.791Z,8.40
2023-05-21T08:24:26.762Z,8.60
2023-05-21T08:25:26.799Z,8.40
2023-05-21T08:26:26.958Z,8.30
2023-05-21T08:27:26.766Z,8.30
2023-05-21T08:28:26.731Z,8.70
2023-05-21T08:29:26.714Z,8.20
2023-05-21T08:30:26.690Z,8.20
2023-05-21T08:31:26.747Z,7.90
2023-05-21T08:32:26.734Z,8.10
2023-05-21T08:33:26.686Z,8.30
2023-05-21T08:34:26.681Z,8.00
2023-05-21T08:35:26.676Z,8.60
2023-05-21T08:36:26.668Z,8.30
2023-05-21T08:37:26.657Z,7.90
2023-05-21T08:38:28.812Z,8.70
2023-05-21T08:39:26.644Z,8.40
2023-05-21T08:40:26.666Z,8.10
2023-05-21T08:41:26.602Z,8.30
2023-05-21T08:42:36.200Z,8.80
2023-05-21T08:43:26.647Z,8.80
2023-05-21T08:44:26.599Z,9.10
2023-05-21T08:45:26.623Z,8.30
2023-05-21T08:46:26.662Z,8.40
2023-05-21T08:47:26.595Z,8.80
2023-05-21T08:48:26.585Z,8.40
2023-05-21T08:49:27.319Z,9.00
2023-05-21T08:50:26.517Z,8.70
2023-05-21T08:51:26.487Z,8.70
2023-05-21T08:52:26.497Z,8.90
2023-05-21T08:53:28.578Z,9.20
2023-05-21T08:54:26.449Z,8.60
2023-05-21T08:55:27.015Z,9.00
2023-05-21T08:56:26.470Z,9.20
2023-05-21T08:57:26.452Z,8.90
2023-05-21T08:58:26.471Z,9.20
2023-05-21T08:59:26.441Z,8.90
2023-05-21T09:00:26.397Z,8.80
2023-05-21T09:01:26.766Z,9.20
2023-05-21T09:02:26.668Z,9.40
2023-05-21T09:03:26.548Z,8.60
2023-05-21T09:04:26.434Z,9.50
2023-05-21T09:05:26.353Z,8.90
2023-05-21T09:06:26.328Z,8.60
2023-05-21T09:07:26.375Z,8.90
2023-05-21T09:08:26.405Z,9.40
2023-05-21T09:09:26.331Z,9.30
2023-05-21T09:10:26.303Z,9.80
2023-05-21T09:11:26.287Z,9.10
2023-05-21T09:12:26.279Z,9.20
2023-05-21T09:13:26.302Z,9.00
2023-05-21T09:14:26.256Z,8.90
2023-05-21T09:15:26.239Z,9.40
2023-05-21T09:16:26.236Z,8.90
2023-05-21T09:17:26.307Z,9.10
2023-05-21T09:18:26.208Z,8.90
2023-05-21T09:19:26.319Z,8.20
2023-05-21T09:20:26.190Z,8.70
2023-05-21T09:21:26.252Z,9.20
2023-05-21T09:22:26.159Z,8.80
2023-05-21T09:23:26.167Z,8.80
2023-05-21T09:24:26.135Z,8.80
2023-05-21T09:25:26.184Z,8.90
2023-05-21T09:26:26.152Z,9.10
2023-05-21T09:27:26.140Z,8.80
2023-05-21T09:28:26.119Z,8.80
2023-05-21T09:29:26.164Z,8.90
2023-05-21T09:30:34.858Z,8.70
2023-05-21T09:31:26.145Z,9.10
2023-05-21T09:32:26.155Z,9.50
2023-05-21T09:33:26.077Z,9.60
2023-05-21T09:34:26.034Z,9.50
2023-05-21T09:35:26.044Z,9.60
2023-05-21T09:36:26.027Z,9.40
2023-05-21T09:37:27.554Z,9.90
2023-05-21T09:38:26.002Z,10.10
2023-05-21T09:39:26.019Z,9.60
2023-05-21T09:40:25.995Z,9.60
2023-05-21T09:41:25.990Z,9.80
2023-05-21T09:42:25.971Z,10.10
2023-05-21T09:43:25.993Z,10.20
2023-05-21T09:44:25.955Z,10.90
2023-05-21T09:45:25.914Z,11.00
2023-05-21T09:46:25.956Z,10.40
2023-05-21T09:47:26.071Z,10.30
2023-05-21T09:48:25.912Z,10.30
2023-05-21T09:49:26.725Z,10.60
2023-05-21T09:50:25.860Z,10.40
2023-05-21T09:51:25.889Z,10.20
2023-05-21T09:52:25.903Z,10.50
2023-05-21T09:53:25.883Z,10.20
2023-05-21T09:54:25.867Z,10.60
2023-05-21T09:55:25.870Z,10.70
2023-05-21T09:56:25.806Z,10.70
2023-05-21T09:57:25.850Z,10.40
2023-05-21T09:58:25.807Z,10.70
2023-05-21T09:59:25.801Z,10.10
2023-05-21T10:00:26.525Z,10.70
2023-05-21T10:01:25.774Z,10.70
2023-05-21T10:02:25.791Z,10.30
2023-05-21T10:03:25.764Z,10.20
2023-05-21T10:04:25.787Z,10.40
2023-05-21T10:05:25.765Z,10.70
2023-05-21T10:06:25.759Z,10.90
2023-05-21T10:07:25.737Z,10.80
2023-05-21T10:08:25.966Z,10.70
2023-05-21T10:09:25.663Z,11.10
2023-05-21T10:10:25.647Z,10.40
2023-05-21T10:11:25.672Z,10.60
2023-05-21T10:12:25.630Z,10.70
2023-05-21T10:13:25.640Z,11.80
2023-05-21T10:14:25.638Z,11.80
2023-05-21T10:15:25.762Z,11.30
2023-05-21T10:16:25.680Z,10.70
2023-05-21T10:17:25.694Z,11.40
2023-05-21T10:18:25.593Z,10.90
2023-05-21T10:19:25.649Z,10.40
2023-05-21T10:20:25.562Z,10.90
2023-05-21T10:21:25.550Z,11.20
2023-05-21T10:22:25.585Z,11.30
2023-05-21T10:23:25.588Z,11.10
2023-05-21T10:24:25.515Z,10.20
2023-05-21T10:25:25.491Z,10.60
2023-05-21T10:26:25.485Z,11.80
2023-05-21T10:27:25.482Z,10.80
2023-05-21T10:28:25.502Z,11.10
2023-05-21T10:29:25.465Z,11.00
2023-05-21T10:30:25.480Z,11.40
2023-05-21T10:31:25.438Z,12.10
2023-05-21T10:32:25.557Z,12.20
2023-05-21T10:33:26.138Z,11.90
2023-05-21T10:34:25.434Z,11.30
2023-05-21T10:35:25.417Z,12.10
2023-05-21T10:36:25.420Z,11.70
2023-05-21T10:37:25.383Z,12.00
2023-05-21T10:38:25.376Z,12.60
2023-05-21T10:39:25.448Z,12.00
2023-05-21T10:40:25.397Z,11.80
2023-05-21T10:41:25.365Z,11.50
2023-05-21T10:42:25.325Z,11.60
2023-05-21T10:43:25.328Z,11.80
2023-05-21T10:44:25.300Z,12.20
2023-05-21T10:45:25.342Z,12.30
2023-05-21T10:46:25.301Z,12.40
2023-05-21T10:47:25.318Z,12.10
2023-05-21T10:48:25.253Z,12.60
2023-05-21T10:49:25.239Z,12.60
2023-05-21T10:50:25.277Z,12.10
2023-05-21T10:51:25.883Z,12.60
2023-05-21T10:52:25.230Z,12.50
2023-05-21T10:53:25.196Z,12.60
2023-05-21T10:54:25.219Z,12.10
2023-05-21T10:55:25.213Z,12.00
2023-05-21T10:56:25.210Z,11.80
2023-05-21T10:57:25.203Z,12.80
2023-05-21T10:58:25.174Z,12.60
2023-05-21T10:59:25.177Z,12.70
2023-05-21T11:00:25.281Z,12.60
2023-05-21T11:01:25.151Z,13.00
2023-05-21T11:02:25.196Z,12.70
2023-05-21T11:03:25.242Z,12.80
2023-05-21T11:04:25.125Z,13.10
2023-05-21T11:05:25.084Z,13.40
2023-05-21T11:06:25.115Z,12.80
2023-05-21T11:07:25.141Z,13.20
2023-05-21T11:08:25.062Z,13.00
2023-05-21T11:09:25.057Z,12.80
2023-05-21T11:10:25.085Z,12.60
2023-05-21T11:11:25.012Z,12.80
2023-05-21T11:12:24.997Z,12.60
2023-05-21T11:13:25.009Z,13.30
2023-05-21T11:14:24.976Z,13.00
2023-05-21T11:15:24.999Z,12.50
2023-05-21T11:16:25.044Z,13.00
2023-05-21T11:17:24.972Z,12.80
2023-05-21T11:18:24.980Z,13.20
2023-05-21T11:19:24.958Z,13.30
2023-05-21T11:20:24.924Z,12.90
2023-05-21T11:21:24.897Z,12.60
2023-05-21T11:22:24.961Z,12.80
2023-05-21T11:23:24.911Z,12.80
2023-05-21T11:24:24.879Z,12.90
2023-05-21T11:25:24.901Z,13.50
2023-05-21T11:26:24.874Z,13.00
2023-05-21T11:27:24.836Z,13.40
2023-05-21T11:28:24.859Z,12.90
2023-05-21T11:29:24.832Z,12.60
2023-05-21T11:30:24.798Z,13.00
2023-05-21T11:31:24.824Z,12.80
2023-05-21T11:32:24.864Z,12.80
2023-05-21T11:33:24.844Z,13.80
2023-05-21T11:34:24.825Z,12.90
2023-05-21T11:35:24.781Z,13.20
2023-05-21T11:36:24.773Z,13.30
2023-05-21T11:37:24.748Z,13.30
2023-05-21T11:38:24.775Z,12.60
2023-05-21T11:39:24.704Z,12.90
2023-05-21T11:40:24.727Z,12.90
2023-05-21T11:41:24.685Z,12.80
2023-05-21T11:42:24.676Z,12.50
2023-05-21T11:43:24.669Z,12.70
2023-05-21T11:44:24.675Z,12.70
2023-05-21T11:45:24.649Z,13.30
2023-05-21T11:46:24.721Z,13.00
2023-05-21T11:47:24.727Z,12.70
2023-05-21T11:48:27.081Z,13.50
2023-05-21T11:49:24.659Z,13.30
2023-05-21T11:50:24.644Z,13.10
2023-05-21T11:51:24.691Z,13.50
2023-05-21T11:52:24.706Z,14.20
2023-05-21T11:53:24.575Z,13.60
2023-05-21T11:54:24.552Z,13.40
2023-05-21T11:55:24.529Z,12.80
2023-05-21T11:56:24.598Z,13.10
2023-05-21T11:57:24.520Z,13.10
2023-05-21T11:58:24.529Z,13.40
2023-05-21T11:59:24.503Z,13.20
2023-05-21T12:00:24.560Z,13.10
2023-05-21T12:01:24.479Z,13.10
2023-05-21T12:02:24.498Z,13.50
2023-05-21T12:03:24.502Z,13.40
2023-05-21T12:04:24.492Z,13.40
2023-05-21T12:05:24.482Z,13.10
2023-05-21T12:06:24.532Z,13.10
2023-05-21T12:07:24.409Z,13.20
2023-05-21T12:08:24.402Z,13.30
2023-05-21T12:09:24.455Z,13.00
2023-05-21T12:10:24.525Z,13.70
2023-05-21T12:11:24.386Z,13.40
2023-05-21T12:12:24.362Z,12.90
2023-05-21T12:13:24.357Z,13.00
2023-05-21T12:14:24.424Z,13.40
2023-05-21T12:15:24.366Z,13.20
2023-05-21T12:16:24.366Z,13.70
2023-05-21T12:17:24.355Z,13.90
2023-05-21T12:18:24.313Z,13.60
2023-05-21T12:19:24.330Z,12.90
2023-05-21T12:20:24.307Z,13.50
2023-05-21T12:21:24.289Z,13.40
2023-05-21T12:22:24.292Z,13.40
2023-05-21T12:23:24.259Z,12.40
2023-05-21T12:24:24.287Z,12.60
2023-05-21T12:25:24.265Z,12.30
2023-05-21T12:26:24.242Z,12.40
2023-05-21T12:27:24.201Z,12.40
2023-05-21T12:28:24.223Z,13.30
2023-05-21T12:29:24.192Z,12.70
2023-05-21T12:30:24.195Z,13.60
2023-05-21T12:31:24.189Z,14.40
2023-05-21T12:32:24.213Z,13.90
2023-05-21T12:33:25.188Z,13.60
2023-05-21T12:34:24.126Z,13.60
2023-05-21T12:35:24.661Z,14.30
2023-05-21T12:36:24.172Z,14.20
2023-05-21T12:37:24.169Z,14.20
2023-05-21T12:38:24.101Z,13.70
2023-05-21T12:39:24.098Z,13.50
2023-05-21T12:40:24.085Z,13.30
2023-05-21T12:41:24.075Z,13.20
2023-05-21T12:42:24.078Z,13.80
2023-05-21T12:43:24.082Z,13.70
2023-05-21T12:44:24.049Z,14.00
2023-05-21T12:45:24.020Z,13.80
2023-05-21T12:46:24.024Z,13.00
2023-05-21T12:47:24.037Z,13.50
2023-05-21T12:48:24.018Z,13.40
2023-05-21T12:49:24.006Z,13.50
2023-05-21T12:50:23.963Z,13.30
2023-05-21T12:51:24.002Z,13.20
2023-05-21T12:52:23.970Z,13.50
2023-05-21T12:53:23.933Z,13.10
2023-05-21T12:54:23.949Z,12.70
2023-05-21T12:55:23.935Z,13.40
2023-05-21T12:56:23.935Z,13.90
2023-05-21T12:57:23.914Z,12.60
2023-05-21T12:58:23.949Z,12.70
2023-05-21T12:59:23.895Z,13.60
2023-05-21T13:00:23.893Z,12.60
2023-05-21T13:01:23.966Z,13.50
2023-05-21T13:02:23.844Z,12.70
2023-05-21T13:03:23.849Z,12.30
2023-05-21T13:04:23.925Z,13.10
2023-05-21T13:05:23.836Z,12.80
2023-05-21T13:06:23.801Z,12.80
2023-05-21T13:07:23.786Z,12.70
2023-05-21T13:08:23.843Z,13.60
2023-05-21T13:09:23.762Z,13.30
2023-05-21T13:10:23.778Z,13.80
2023-05-21T13:11:23.739Z,14.00